Red Bay, Canada
Current Conditions -  °F | °C
As of 10:37 PM on Thursday 20 Nov 2014 (Local Time) from CYAY Reporting Station
Light Snow Light Snow  
Wind Chill: 19°   Ceiling: 2600
Heat Index: 27°   Visibility: 6mi
Dew Point: 25°   Wind: 7mph
Humidity: 93%   Direction: 140°SE
Pressure: 29.85"   Gusts: NA
Location:  51.73°N, 56.42°W
Report Text: CYAY 210237Z AUTO 14006KT 6SM -SN BKN026 OVC060 M03/M04 A2985 RMK PRESFR SLP111
Loading
Personal Weather Stations






























Interactive Weather Map New forecast layout! Learn more

10-Day Weather Forecast

Advertisements
Track Severe Weather on mobile